sensor_id;sensor_type;location;lat;lon;timestamp;P1;durP1;ratioP1;P2;durP2;ratioP2
64826;SDS011;51265;53.972;12.286;2023-01-08T00:02:13;4.32;;;3.40;;
64826;SDS011;51265;53.972;12.286;2023-01-08T00:04:39;5.63;;;3.03;;
64826;SDS011;51265;53.972;12.286;2023-01-08T00:07:05;4.45;;;3.35;;
64826;SDS011;51265;53.972;12.286;2023-01-08T00:09:32;5.20;;;3.80;;
64826;SDS011;51265;53.972;12.286;2023-01-08T00:11:58;4.85;;;3.53;;
64826;SDS011;51265;53.972;12.286;2023-01-08T00:14:24;5.03;;;3.67;;
64826;SDS011;51265;53.972;12.286;2023-01-08T00:16:50;5.15;;;3.67;;
64826;SDS011;51265;53.972;12.286;2023-01-08T00:19:16;6.13;;;4.13;;
64826;SDS011;51265;53.972;12.286;2023-01-08T00:21:43;6.45;;;4.30;;
64826;SDS011;51265;53.972;12.286;2023-01-08T00:24:09;5.72;;;3.65;;
64826;SDS011;51265;53.972;12.286;2023-01-08T00:26:35;6.38;;;4.03;;
64826;SDS011;51265;53.972;12.286;2023-01-08T00:29:01;6.40;;;4.20;;
64826;SDS011;51265;53.972;12.286;2023-01-08T00:31:28;5.55;;;4.28;;
64826;SDS011;51265;53.972;12.286;2023-01-08T00:33:54;5.38;;;3.95;;
64826;SDS011;51265;53.972;12.286;2023-01-08T00:36:20;6.70;;;4.22;;
64826;SDS011;51265;53.972;12.286;2023-01-08T00:38:46;5.47;;;3.97;;
64826;SDS011;51265;53.972;12.286;2023-01-08T00:41:13;6.00;;;4.10;;
64826;SDS011;51265;53.972;12.286;2023-01-08T00:43:40;7.93;;;4.00;;
64826;SDS011;51265;53.972;12.286;2023-01-08T00:46:06;6.88;;;4.50;;
64826;SDS011;51265;53.972;12.286;2023-01-08T00:48:33;7.53;;;3.88;;
64826;SDS011;51265;53.972;12.286;2023-01-08T00:51:03;8.73;;;3.95;;
64826;SDS011;51265;53.972;12.286;2023-01-08T00:53:30;6.10;;;4.63;;
64826;SDS011;51265;53.972;12.286;2023-01-08T00:56:01;8.30;;;5.20;;
64826;SDS011;51265;53.972;12.286;2023-01-08T00:58:28;8.30;;;4.57;;
64826;SDS011;51265;53.972;12.286;2023-01-08T01:00:55;8.52;;;4.65;;
64826;SDS011;51265;53.972;12.286;2023-01-08T01:03:21;6.40;;;4.40;;
64826;SDS011;51265;53.972;12.286;2023-01-08T01:05:47;9.82;;;5.05;;
64826;SDS011;51265;53.972;12.286;2023-01-08T01:08:14;6.68;;;4.65;;
64826;SDS011;51265;53.972;12.286;2023-01-08T01:10:41;8.00;;;5.25;;
64826;SDS011;51265;53.972;12.286;2023-01-08T01:13:07;7.47;;;5.07;;
64826;SDS011;51265;53.972;12.286;2023-01-08T01:15:33;10.65;;;5.38;;
64826;SDS011;51265;53.972;12.286;2023-01-08T01:18:00;8.70;;;5.38;;
64826;SDS011;51265;53.972;12.286;2023-01-08T01:20:26;10.25;;;5.50;;
64826;SDS011;51265;53.972;12.286;2023-01-08T01:22:52;9.93;;;5.90;;
64826;SDS011;51265;53.972;12.286;2023-01-08T01:25:18;8.27;;;5.20;;
64826;SDS011;51265;53.972;12.286;2023-01-08T01:27:45;9.35;;;5.38;;
64826;SDS011;51265;53.972;12.286;2023-01-08T01:30:11;7.60;;;4.90;;
64826;SDS011;51265;53.972;12.286;2023-01-08T01:32:37;6.68;;;5.05;;
64826;SDS011;51265;53.972;12.286;2023-01-08T01:35:03;7.32;;;5.03;;
64826;SDS011;51265;53.972;12.286;2023-01-08T01:37:30;6.47;;;4.55;;
64826;SDS011;51265;53.972;12.286;2023-01-08T01:39:56;10.13;;;4.95;;
64826;SDS011;51265;53.972;12.286;2023-01-08T01:42:22;6.57;;;4.68;;
64826;SDS011;51265;53.972;12.286;2023-01-08T01:47:45;8.05;;;4.93;;
64826;SDS011;51265;53.972;12.286;2023-01-08T01:50:19;6.13;;;4.47;;
64826;SDS011;51265;53.972;12.286;2023-01-08T01:52:53;8.98;;;4.45;;
64826;SDS011;51265;53.972;12.286;2023-01-08T01:55:28;5.72;;;4.20;;
64826;SDS011;51265;53.972;12.286;2023-01-08T01:58:15;7.07;;;4.20;;
64826;SDS011;51265;53.972;12.286;2023-01-08T02:00:49;6.07;;;4.43;;
64826;SDS011;51265;53.972;12.286;2023-01-08T02:03:19;6.63;;;4.78;;
64826;SDS011;51265;53.972;12.286;2023-01-08T02:05:56;7.35;;;4.63;;
64826;SDS011;51265;53.972;12.286;2023-01-08T02:08:35;8.98;;;5.07;;
64826;SDS011;51265;53.972;12.286;2023-01-08T02:11:11;6.57;;;4.53;;
64826;SDS011;51265;53.972;12.286;2023-01-08T02:13:44;6.05;;;4.15;;
64826;SDS011;51265;53.972;12.286;2023-01-08T02:16:25;6.85;;;4.43;;
64826;SDS011;51265;53.972;12.286;2023-01-08T02:19:01;8.05;;;4.78;;
64826;SDS011;51265;53.972;12.286;2023-01-08T02:27:43;8.35;;;4.97;;
64826;SDS011;51265;53.972;12.286;2023-01-08T02:34:18;5.82;;;4.47;;
64826;SDS011;51265;53.972;12.286;2023-01-08T02:36:49;7.75;;;5.20;;
64826;SDS011;51265;53.972;12.286;2023-01-08T02:39:27;7.50;;;4.70;;
64826;SDS011;51265;53.972;12.286;2023-01-08T02:45:23;6.65;;;4.88;;
64826;SDS011;51265;53.972;12.286;2023-01-08T02:48:08;6.45;;;4.28;;
64826;SDS011;51265;53.972;12.286;2023-01-08T02:50:39;6.50;;;4.75;;
64826;SDS011;51265;53.972;12.286;2023-01-08T02:53:13;5.60;;;4.23;;
64826;SDS011;51265;53.972;12.286;2023-01-08T02:58:11;7.78;;;4.25;;
64826;SDS011;51265;53.972;12.286;2023-01-08T03:00:38;6.25;;;4.45;;
64826;SDS011;51265;53.972;12.286;2023-01-08T03:03:17;8.50;;;4.65;;
64826;SDS011;51265;53.972;12.286;2023-01-08T03:05:48;9.95;;;5.20;;
64826;SDS011;51265;53.972;12.286;2023-01-08T03:08:17;7.22;;;4.88;;
64826;SDS011;51265;53.972;12.286;2023-01-08T03:10:45;5.80;;;4.43;;
64826;SDS011;51265;53.972;12.286;2023-01-08T03:13:18;6.40;;;4.20;;
64826;SDS011;51265;53.972;12.286;2023-01-08T03:15:55;6.05;;;4.05;;
64826;SDS011;51265;53.972;12.286;2023-01-08T03:18:26;5.20;;;4.20;;
64826;SDS011;51265;53.972;12.286;2023-01-08T03:20:59;6.90;;;4.25;;
64826;SDS011;51265;53.972;12.286;2023-01-08T03:23:27;8.63;;;4.93;;
64826;SDS011;51265;53.972;12.286;2023-01-08T03:25:55;5.78;;;4.43;;
64826;SDS011;51265;53.972;12.286;2023-01-08T03:28:26;6.07;;;4.10;;
64826;SDS011;51265;53.972;12.286;2023-01-08T03:30:58;7.87;;;4.33;;
64826;SDS011;51265;53.972;12.286;2023-01-08T03:33:26;5.65;;;4.05;;
64826;SDS011;51265;53.972;12.286;2023-01-08T03:35:55;5.05;;;4.00;;
64826;SDS011;51265;53.972;12.286;2023-01-08T03:38:35;5.47;;;4.03;;
64826;SDS011;51265;53.972;12.286;2023-01-08T03:41:12;6.28;;;3.95;;
64826;SDS011;51265;53.972;12.286;2023-01-08T03:43:43;5.90;;;4.20;;
64826;SDS011;51265;53.972;12.286;2023-01-08T03:46:12;5.72;;;4.28;;
64826;SDS011;51265;53.972;12.286;2023-01-08T03:48:43;5.72;;;3.97;;
64826;SDS011;51265;53.972;12.286;2023-01-08T03:51:11;6.30;;;4.10;;
64826;SDS011;51265;53.972;12.286;2023-01-08T03:53:37;5.97;;;3.88;;
64826;SDS011;51265;53.972;12.286;2023-01-08T03:56:03;6.25;;;4.55;;
64826;SDS011;51265;53.972;12.286;2023-01-08T03:58:30;5.97;;;4.13;;
64826;SDS011;51265;53.972;12.286;2023-01-08T04:00:56;5.78;;;3.90;;
64826;SDS011;51265;53.972;12.286;2023-01-08T04:03:22;6.18;;;3.83;;
64826;SDS011;51265;53.972;12.286;2023-01-08T04:05:49;4.85;;;3.90;;
64826;SDS011;51265;53.972;12.286;2023-01-08T04:08:15;6.68;;;4.82;;
64826;SDS011;51265;53.972;12.286;2023-01-08T04:10:41;6.13;;;4.22;;
64826;SDS011;51265;53.972;12.286;2023-01-08T04:13:08;9.18;;;4.38;;
64826;SDS011;51265;53.972;12.286;2023-01-08T04:15:34;5.25;;;4.30;;
64826;SDS011;51265;53.972;12.286;2023-01-08T04:18:00;6.03;;;4.30;;
64826;SDS011;51265;53.972;12.286;2023-01-08T04:20:26;6.40;;;4.50;;
64826;SDS011;51265;53.972;12.286;2023-01-08T04:22:52;5.60;;;4.22;;
64826;SDS011;51265;53.972;12.286;2023-01-08T04:25:18;6.30;;;4.30;;
64826;SDS011;51265;53.972;12.286;2023-01-08T04:27:44;6.28;;;4.63;;
64826;SDS011;51265;53.972;12.286;2023-01-08T04:30:11;5.93;;;4.65;;
64826;SDS011;51265;53.972;12.286;2023-01-08T04:32:37;7.13;;;4.75;;
64826;SDS011;51265;53.972;12.286;2023-01-08T04:35:03;5.78;;;4.35;;
64826;SDS011;51265;53.972;12.286;2023-01-08T04:37:30;7.00;;;4.72;;
64826;SDS011;51265;53.972;12.286;2023-01-08T04:39:56;5.68;;;4.80;;
64826;SDS011;51265;53.972;12.286;2023-01-08T04:42:22;6.32;;;4.82;;
64826;SDS011;51265;53.972;12.286;2023-01-08T04:44:48;9.02;;;5.53;;
64826;SDS011;51265;53.972;12.286;2023-01-08T04:47:14;8.18;;;5.45;;
64826;SDS011;51265;53.972;12.286;2023-01-08T04:49:40;7.97;;;5.20;;
64826;SDS011;51265;53.972;12.286;2023-01-08T04:52:06;7.25;;;5.57;;
64826;SDS011;51265;53.972;12.286;2023-01-08T04:54:33;7.15;;;5.00;;
64826;SDS011;51265;53.972;12.286;2023-01-08T04:56:59;9.60;;;5.32;;
64826;SDS011;51265;53.972;12.286;2023-01-08T04:59:25;6.40;;;4.90;;
64826;SDS011;51265;53.972;12.286;2023-01-08T05:01:51;7.30;;;4.88;;
64826;SDS011;51265;53.972;12.286;2023-01-08T05:04:17;7.90;;;4.90;;
64826;SDS011;51265;53.972;12.286;2023-01-08T05:06:43;8.18;;;4.85;;
64826;SDS011;51265;53.972;12.286;2023-01-08T05:09:09;8.05;;;5.40;;
64826;SDS011;51265;53.972;12.286;2023-01-08T05:11:36;6.72;;;4.75;;
64826;SDS011;51265;53.972;12.286;2023-01-08T05:14:02;6.55;;;5.05;;
64826;SDS011;51265;53.972;12.286;2023-01-08T05:16:29;7.03;;;5.25;;
64826;SDS011;51265;53.972;12.286;2023-01-08T05:18:55;6.50;;;4.80;;
64826;SDS011;51265;53.972;12.286;2023-01-08T05:21:21;8.02;;;5.13;;
64826;SDS011;51265;53.972;12.286;2023-01-08T05:23:47;6.68;;;4.90;;
64826;SDS011;51265;53.972;12.286;2023-01-08T05:26:13;9.82;;;5.50;;
64826;SDS011;51265;53.972;12.286;2023-01-08T05:28:41;8.35;;;5.53;;
64826;SDS011;51265;53.972;12.286;2023-01-08T05:31:07;8.15;;;5.70;;
64826;SDS011;51265;53.972;12.286;2023-01-08T05:33:33;8.57;;;5.50;;
64826;SDS011;51265;53.972;12.286;2023-01-08T05:36:00;7.65;;;5.30;;
64826;SDS011;51265;53.972;12.286;2023-01-08T05:38:29;10.25;;;6.40;;
64826;SDS011;51265;53.972;12.286;2023-01-08T05:40:55;7.38;;;5.60;;
64826;SDS011;51265;53.972;12.286;2023-01-08T05:43:21;7.05;;;5.10;;
64826;SDS011;51265;53.972;12.286;2023-01-08T05:45:47;10.80;;;5.45;;
64826;SDS011;51265;53.972;12.286;2023-01-08T05:48:14;9.18;;;5.63;;
64826;SDS011;51265;53.972;12.286;2023-01-08T05:50:40;7.15;;;5.50;;
64826;SDS011;51265;53.972;12.286;2023-01-08T05:53:07;8.90;;;6.25;;
64826;SDS011;51265;53.972;12.286;2023-01-08T05:55:34;8.73;;;5.22;;
64826;SDS011;51265;53.972;12.286;2023-01-08T05:58:01;8.18;;;5.80;;
64826;SDS011;51265;53.972;12.286;2023-01-08T06:00:28;15.43;;;5.57;;
64826;SDS011;51265;53.972;12.286;2023-01-08T06:02:54;9.52;;;5.30;;
64826;SDS011;51265;53.972;12.286;2023-01-08T06:05:20;8.35;;;5.65;;
64826;SDS011;51265;53.972;12.286;2023-01-08T06:07:46;9.50;;;5.93;;
64826;SDS011;51265;53.972;12.286;2023-01-08T06:10:12;7.55;;;5.85;;
64826;SDS011;51265;53.972;12.286;2023-01-08T06:12:39;8.95;;;5.82;;
64826;SDS011;51265;53.972;12.286;2023-01-08T06:15:05;7.80;;;5.47;;
64826;SDS011;51265;53.972;12.286;2023-01-08T06:17:33;10.18;;;6.55;;
64826;SDS011;51265;53.972;12.286;2023-01-08T06:19:59;7.85;;;5.75;;
64826;SDS011;51265;53.972;12.286;2023-01-08T06:22:25;8.05;;;5.72;;
64826;SDS011;51265;53.972;12.286;2023-01-08T06:24:52;10.98;;;5.85;;
64826;SDS011;51265;53.972;12.286;2023-01-08T06:27:18;10.55;;;5.95;;
64826;SDS011;51265;53.972;12.286;2023-01-08T06:29:45;8.38;;;5.97;;
64826;SDS011;51265;53.972;12.286;2023-01-08T06:32:11;9.13;;;5.78;;
64826;SDS011;51265;53.972;12.286;2023-01-08T06:34:37;7.65;;;5.72;;
64826;SDS011;51265;53.972;12.286;2023-01-08T06:37:03;9.27;;;6.10;;
64826;SDS011;51265;53.972;12.286;2023-01-08T06:39:29;8.82;;;6.07;;
64826;SDS011;51265;53.972;12.286;2023-01-08T06:41:55;7.68;;;5.50;;
64826;SDS011;51265;53.972;12.286;2023-01-08T06:44:21;9.82;;;6.28;;
64826;SDS011;51265;53.972;12.286;2023-01-08T06:46:48;8.45;;;5.43;;
64826;SDS011;51265;53.972;12.286;2023-01-08T06:49:14;10.27;;;6.20;;
64826;SDS011;51265;53.972;12.286;2023-01-08T06:51:42;10.93;;;6.00;;
64826;SDS011;51265;53.972;12.286;2023-01-08T06:54:08;9.38;;;5.97;;
64826;SDS011;51265;53.972;12.286;2023-01-08T06:56:34;7.10;;;5.40;;
64826;SDS011;51265;53.972;12.286;2023-01-08T06:59:00;8.63;;;5.97;;
64826;SDS011;51265;53.972;12.286;2023-01-08T07:01:27;7.85;;;5.75;;
64826;SDS011;51265;53.972;12.286;2023-01-08T07:03:53;9.52;;;5.85;;
64826;SDS011;51265;53.972;12.286;2023-01-08T07:06:21;11.13;;;5.57;;
64826;SDS011;51265;53.972;12.286;2023-01-08T07:08:48;8.93;;;5.78;;
64826;SDS011;51265;53.972;12.286;2023-01-08T07:11:15;8.80;;;5.72;;
64826;SDS011;51265;53.972;12.286;2023-01-08T07:13:42;7.78;;;5.22;;
64826;SDS011;51265;53.972;12.286;2023-01-08T07:16:09;9.77;;;5.72;;
64826;SDS011;51265;53.972;12.286;2023-01-08T07:18:37;7.70;;;5.43;;
64826;SDS011;51265;53.972;12.286;2023-01-08T07:21:04;8.43;;;6.00;;
64826;SDS011;51265;53.972;12.286;2023-01-08T07:23:32;13.60;;;8.32;;
64826;SDS011;51265;53.972;12.286;2023-01-08T07:25:59;11.85;;;7.50;;
64826;SDS011;51265;53.972;12.286;2023-01-08T07:28:26;9.27;;;5.93;;
64826;SDS011;51265;53.972;12.286;2023-01-08T07:30:53;7.45;;;5.55;;
64826;SDS011;51265;53.972;12.286;2023-01-08T07:33:19;10.48;;;6.47;;
64826;SDS011;51265;53.972;12.286;2023-01-08T07:35:54;9.40;;;5.90;;
64826;SDS011;51265;53.972;12.286;2023-01-08T07:38:21;10.00;;;5.70;;
64826;SDS011;51265;53.972;12.286;2023-01-08T07:40:48;9.90;;;6.65;;
64826;SDS011;51265;53.972;12.286;2023-01-08T07:43:14;8.30;;;5.80;;
64826;SDS011;51265;53.972;12.286;2023-01-08T07:45:40;8.48;;;5.55;;
64826;SDS011;51265;53.972;12.286;2023-01-08T07:48:07;7.10;;;5.68;;
64826;SDS011;51265;53.972;12.286;2023-01-08T07:50:41;7.30;;;5.53;;
64826;SDS011;51265;53.972;12.286;2023-01-08T07:53:08;8.50;;;6.03;;
64826;SDS011;51265;53.972;12.286;2023-01-08T07:55:35;8.38;;;5.53;;
64826;SDS011;51265;53.972;12.286;2023-01-08T07:58:06;10.07;;;5.95;;
64826;SDS011;51265;53.972;12.286;2023-01-08T08:00:36;7.53;;;5.60;;
64826;SDS011;51265;53.972;12.286;2023-01-08T08:03:03;10.85;;;5.80;;
64826;SDS011;51265;53.972;12.286;2023-01-08T08:05:31;8.20;;;5.35;;
64826;SDS011;51265;53.972;12.286;2023-01-08T08:07:57;8.52;;;5.75;;
64826;SDS011;51265;53.972;12.286;2023-01-08T08:10:24;7.93;;;5.60;;
64826;SDS011;51265;53.972;12.286;2023-01-08T08:12:50;9.27;;;5.55;;
64826;SDS011;51265;53.972;12.286;2023-01-08T08:15:16;9.38;;;5.70;;
64826;SDS011;51265;53.972;12.286;2023-01-08T08:17:45;9.27;;;5.85;;
64826;SDS011;51265;53.972;12.286;2023-01-08T08:20:12;8.27;;;5.57;;
64826;SDS011;51265;53.972;12.286;2023-01-08T08:22:39;9.88;;;6.43;;
64826;SDS011;51265;53.972;12.286;2023-01-08T08:25:05;9.07;;;5.88;;
64826;SDS011;51265;53.972;12.286;2023-01-08T08:27:32;11.77;;;6.68;;
64826;SDS011;51265;53.972;12.286;2023-01-08T08:29:58;9.45;;;6.53;;
64826;SDS011;51265;53.972;12.286;2023-01-08T08:32:24;10.15;;;6.38;;
64826;SDS011;51265;53.972;12.286;2023-01-08T08:34:50;9.32;;;6.68;;
64826;SDS011;51265;53.972;12.286;2023-01-08T08:37:16;8.70;;;5.72;;
64826;SDS011;51265;53.972;12.286;2023-01-08T08:39:42;9.60;;;6.53;;
64826;SDS011;51265;53.972;12.286;2023-01-08T08:42:09;8.38;;;6.40;;
64826;SDS011;51265;53.972;12.286;2023-01-08T08:44:35;9.02;;;6.38;;
64826;SDS011;51265;53.972;12.286;2023-01-08T08:47:01;12.07;;;6.28;;
64826;SDS011;51265;53.972;12.286;2023-01-08T08:49:32;14.02;;;8.95;;
64826;SDS011;51265;53.972;12.286;2023-01-08T08:51:58;11.73;;;6.90;;
64826;SDS011;51265;53.972;12.286;2023-01-08T08:54:24;13.07;;;8.40;;
64826;SDS011;51265;53.972;12.286;2023-01-08T08:56:50;8.93;;;6.25;;
64826;SDS011;51265;53.972;12.286;2023-01-08T08:59:16;10.23;;;6.80;;
64826;SDS011;51265;53.972;12.286;2023-01-08T09:01:42;11.82;;;7.13;;
64826;SDS011;51265;53.972;12.286;2023-01-08T09:04:08;10.85;;;6.72;;
64826;SDS011;51265;53.972;12.286;2023-01-08T09:06:35;9.95;;;6.82;;
64826;SDS011;51265;53.972;12.286;2023-01-08T09:09:01;11.25;;;6.57;;
64826;SDS011;51265;53.972;12.286;2023-01-08T09:11:28;12.52;;;6.72;;
64826;SDS011;51265;53.972;12.286;2023-01-08T09:13:54;9.95;;;7.13;;
64826;SDS011;51265;53.972;12.286;2023-01-08T09:16:20;10.80;;;7.32;;
64826;SDS011;51265;53.972;12.286;2023-01-08T09:18:46;10.60;;;7.28;;
64826;SDS011;51265;53.972;12.286;2023-01-08T09:21:13;10.88;;;7.13;;
64826;SDS011;51265;53.972;12.286;2023-01-08T09:23:40;10.88;;;7.22;;
64826;SDS011;51265;53.972;12.286;2023-01-08T09:26:06;10.43;;;7.20;;
64826;SDS011;51265;53.972;12.286;2023-01-08T09:28:33;11.60;;;7.80;;
64826;SDS011;51265;53.972;12.286;2023-01-08T09:31:00;14.32;;;8.25;;
64826;SDS011;51265;53.972;12.286;2023-01-08T09:33:27;11.85;;;7.78;;
64826;SDS011;51265;53.972;12.286;2023-01-08T09:35:54;12.05;;;7.90;;
64826;SDS011;51265;53.972;12.286;2023-01-08T09:38:21;13.38;;;8.25;;
64826;SDS011;51265;53.972;12.286;2023-01-08T09:41:08;11.65;;;7.80;;
64826;SDS011;51265;53.972;12.286;2023-01-08T09:43:37;12.75;;;8.32;;
64826;SDS011;51265;53.972;12.286;2023-01-08T09:46:08;13.85;;;7.82;;
64826;SDS011;51265;53.972;12.286;2023-01-08T09:48:38;17.67;;;9.27;;
64826;SDS011;51265;53.972;12.286;2023-01-08T09:51:08;14.45;;;8.52;;
64826;SDS011;51265;53.972;12.286;2023-01-08T09:53:38;13.23;;;8.75;;
64826;SDS011;51265;53.972;12.286;2023-01-08T09:56:09;12.70;;;8.27;;
64826;SDS011;51265;53.972;12.286;2023-01-08T09:58:43;12.27;;;8.18;;
64826;SDS011;51265;53.972;12.286;2023-01-08T10:01:12;13.05;;;8.65;;
64826;SDS011;51265;53.972;12.286;2023-01-08T10:03:40;15.82;;;8.77;;
64826;SDS011;51265;53.972;12.286;2023-01-08T10:06:10;13.88;;;8.90;;
64826;SDS011;51265;53.972;12.286;2023-01-08T10:08:38;13.35;;;8.48;;
64826;SDS011;51265;53.972;12.286;2023-01-08T10:11:05;14.35;;;8.98;;
64826;SDS011;51265;53.972;12.286;2023-01-08T10:13:32;18.50;;;9.43;;
64826;SDS011;51265;53.972;12.286;2023-01-08T10:16:03;13.05;;;8.57;;
64826;SDS011;51265;53.972;12.286;2023-01-08T10:18:32;14.90;;;9.50;;
64826;SDS011;51265;53.972;12.286;2023-01-08T10:20:59;14.05;;;9.50;;
64826;SDS011;51265;53.972;12.286;2023-01-08T10:23:25;14.82;;;8.80;;
64826;SDS011;51265;53.972;12.286;2023-01-08T10:25:56;13.68;;;8.32;;
64826;SDS011;51265;53.972;12.286;2023-01-08T10:28:30;12.60;;;8.35;;
64826;SDS011;51265;53.972;12.286;2023-01-08T10:31:13;13.55;;;8.60;;
64826;SDS011;51265;53.972;12.286;2023-01-08T10:33:41;14.43;;;8.13;;
64826;SDS011;51265;53.972;12.286;2023-01-08T10:36:09;13.75;;;8.20;;
64826;SDS011;51265;53.972;12.286;2023-01-08T10:38:56;13.90;;;8.75;;
64826;SDS011;51265;53.972;12.286;2023-01-08T10:41:25;14.07;;;8.50;;
64826;SDS011;51265;53.972;12.286;2023-01-08T10:43:59;13.93;;;9.32;;
64826;SDS011;51265;53.972;12.286;2023-01-08T10:46:29;13.45;;;8.70;;
64826;SDS011;51265;53.972;12.286;2023-01-08T10:48:57;13.43;;;8.23;;
64826;SDS011;51265;53.972;12.286;2023-01-08T10:51:27;15.52;;;8.60;;
64826;SDS011;51265;53.972;12.286;2023-01-08T10:53:58;14.45;;;8.65;;
64826;SDS011;51265;53.972;12.286;2023-01-08T10:56:40;14.10;;;8.38;;
64826;SDS011;51265;53.972;12.286;2023-01-08T10:59:21;12.88;;;8.27;;
64826;SDS011;51265;53.972;12.286;2023-01-08T11:01:49;11.63;;;8.05;;
64826;SDS011;51265;53.972;12.286;2023-01-08T11:04:27;13.27;;;8.23;;
64826;SDS011;51265;53.972;12.286;2023-01-08T11:07:14;12.80;;;8.30;;
64826;SDS011;51265;53.972;12.286;2023-01-08T11:09:45;12.60;;;8.15;;
64826;SDS011;51265;53.972;12.286;2023-01-08T11:12:26;12.00;;;7.95;;
64826;SDS011;51265;53.972;12.286;2023-01-08T11:15:02;21.25;;;9.18;;
64826;SDS011;51265;53.972;12.286;2023-01-08T11:17:29;20.38;;;10.45;;
64826;SDS011;51265;53.972;12.286;2023-01-08T11:23:05;15.75;;;9.27;;
64826;SDS011;51265;53.972;12.286;2023-01-08T11:25:38;14.43;;;8.00;;
64826;SDS011;51265;53.972;12.286;2023-01-08T11:28:08;12.57;;;8.18;;
64826;SDS011;51265;53.972;12.286;2023-01-08T11:30:43;12.90;;;8.07;;
64826;SDS011;51265;53.972;12.286;2023-01-08T11:33:20;13.30;;;7.88;;
64826;SDS011;51265;53.972;12.286;2023-01-08T11:35:55;14.30;;;8.77;;
64826;SDS011;51265;53.972;12.286;2023-01-08T11:38:27;12.82;;;8.18;;
64826;SDS011;51265;53.972;12.286;2023-01-08T11:40:58;13.15;;;8.48;;
64826;SDS011;51265;53.972;12.286;2023-01-08T11:49:31;11.43;;;7.30;;
64826;SDS011;51265;53.972;12.286;2023-01-08T12:03:35;12.13;;;7.30;;
64826;SDS011;51265;53.972;12.286;2023-01-08T12:06:10;14.63;;;8.38;;
64826;SDS011;51265;53.972;12.286;2023-01-08T12:08:53;10.57;;;7.38;;
64826;SDS011;51265;53.972;12.286;2023-01-08T12:11:30;13.57;;;8.18;;
64826;SDS011;51265;53.972;12.286;2023-01-08T12:14:21;10.70;;;7.40;;
64826;SDS011;51265;53.972;12.286;2023-01-08T12:17:09;11.15;;;7.28;;
64826;SDS011;51265;53.972;12.286;2023-01-08T12:22:28;10.07;;;7.32;;
64826;SDS011;51265;53.972;12.286;2023-01-08T12:30:47;10.73;;;7.32;;
64826;SDS011;51265;53.972;12.286;2023-01-08T12:33:37;11.98;;;7.63;;
64826;SDS011;51265;53.972;12.286;2023-01-08T12:36:13;11.02;;;7.75;;
64826;SDS011;51265;53.972;12.286;2023-01-08T12:38:44;12.85;;;7.80;;
64826;SDS011;51265;53.972;12.286;2023-01-08T12:41:18;10.27;;;7.35;;
64826;SDS011;51265;53.972;12.286;2023-01-08T12:43:52;14.65;;;7.78;;
64826;SDS011;51265;53.972;12.286;2023-01-08T12:46:26;12.90;;;7.53;;
64826;SDS011;51265;53.972;12.286;2023-01-08T12:48:56;10.75;;;6.65;;
64826;SDS011;51265;53.972;12.286;2023-01-08T12:51:40;10.68;;;6.85;;
64826;SDS011;51265;53.972;12.286;2023-01-08T13:00:16;10.80;;;6.78;;
64826;SDS011;51265;53.972;12.286;2023-01-08T13:07:51;11.43;;;7.60;;
64826;SDS011;51265;53.972;12.286;2023-01-08T13:13:06;10.65;;;7.55;;
64826;SDS011;51265;53.972;12.286;2023-01-08T13:15:48;11.30;;;7.05;;
64826;SDS011;51265;53.972;12.286;2023-01-08T13:18:16;10.85;;;7.15;;
64826;SDS011;51265;53.972;12.286;2023-01-08T13:20:56;11.23;;;7.25;;
64826;SDS011;51265;53.972;12.286;2023-01-08T13:23:29;10.13;;;7.03;;
64826;SDS011;51265;53.972;12.286;2023-01-08T13:26:17;10.70;;;6.75;;
64826;SDS011;51265;53.972;12.286;2023-01-08T13:29:04;10.00;;;7.20;;
64826;SDS011;51265;53.972;12.286;2023-01-08T13:31:48;11.80;;;7.53;;
64826;SDS011;51265;53.972;12.286;2023-01-08T13:34:19;10.18;;;6.97;;
64826;SDS011;51265;53.972;12.286;2023-01-08T13:39:22;9.55;;;6.85;;
64826;SDS011;51265;53.972;12.286;2023-01-08T13:44:49;11.05;;;6.53;;
64826;SDS011;51265;53.972;12.286;2023-01-08T13:47:18;10.07;;;6.50;;
64826;SDS011;51265;53.972;12.286;2023-01-08T13:49:54;11.40;;;6.70;;
64826;SDS011;51265;53.972;12.286;2023-01-08T13:55:04;15.07;;;7.05;;
64826;SDS011;51265;53.972;12.286;2023-01-08T13:57:37;11.93;;;7.03;;
64826;SDS011;51265;53.972;12.286;2023-01-08T14:00:08;10.75;;;6.25;;
64826;SDS011;51265;53.972;12.286;2023-01-08T14:02:44;10.20;;;6.35;;
64826;SDS011;51265;53.972;12.286;2023-01-08T14:07:48;9.80;;;6.20;;
64826;SDS011;51265;53.972;12.286;2023-01-08T14:10:14;13.48;;;6.80;;
64826;SDS011;51265;53.972;12.286;2023-01-08T14:12:42;9.93;;;6.50;;
64826;SDS011;51265;53.972;12.286;2023-01-08T14:15:09;10.27;;;6.22;;
64826;SDS011;51265;53.972;12.286;2023-01-08T14:17:48;10.80;;;5.95;;
64826;SDS011;51265;53.972;12.286;2023-01-08T14:20:29;10.82;;;6.55;;
64826;SDS011;51265;53.972;12.286;2023-01-08T14:22:58;9.57;;;6.07;;
64826;SDS011;51265;53.972;12.286;2023-01-08T14:25:25;9.57;;;6.05;;
64826;SDS011;51265;53.972;12.286;2023-01-08T14:27:56;9.13;;;6.47;;
64826;SDS011;51265;53.972;12.286;2023-01-08T14:30:25;11.23;;;7.20;;
64826;SDS011;51265;53.972;12.286;2023-01-08T14:32:52;10.45;;;6.50;;
64826;SDS011;51265;53.972;12.286;2023-01-08T14:35:20;10.85;;;6.90;;
64826;SDS011;51265;53.972;12.286;2023-01-08T14:37:53;9.60;;;6.65;;
64826;SDS011;51265;53.972;12.286;2023-01-08T14:40:27;10.63;;;6.57;;
64826;SDS011;51265;53.972;12.286;2023-01-08T14:42:55;12.63;;;7.03;;
64826;SDS011;51265;53.972;12.286;2023-01-08T14:45:30;10.80;;;8.10;;
64826;SDS011;51265;53.972;12.286;2023-01-08T14:48:11;11.98;;;7.95;;
64826;SDS011;51265;53.972;12.286;2023-01-08T14:50:43;10.80;;;8.02;;
64826;SDS011;51265;53.972;12.286;2023-01-08T14:53:21;11.40;;;7.88;;
64826;SDS011;51265;53.972;12.286;2023-01-08T14:55:52;13.13;;;8.75;;
64826;SDS011;51265;53.972;12.286;2023-01-08T14:58:22;10.98;;;7.65;;
64826;SDS011;51265;53.972;12.286;2023-01-08T15:00:51;10.18;;;7.10;;
64826;SDS011;51265;53.972;12.286;2023-01-08T15:03:31;12.70;;;7.60;;
64826;SDS011;51265;53.972;12.286;2023-01-08T15:06:01;10.73;;;6.95;;
64826;SDS011;51265;53.972;12.286;2023-01-08T15:08:38;11.77;;;7.72;;
64826;SDS011;51265;53.972;12.286;2023-01-08T15:13:45;12.45;;;7.85;;
64826;SDS011;51265;53.972;12.286;2023-01-08T15:16:17;10.73;;;7.93;;
64826;SDS011;51265;53.972;12.286;2023-01-08T15:18:47;10.02;;;7.55;;
64826;SDS011;51265;53.972;12.286;2023-01-08T15:21:17;12.25;;;8.15;;
64826;SDS011;51265;53.972;12.286;2023-01-08T15:23:46;10.00;;;7.20;;
64826;SDS011;51265;53.972;12.286;2023-01-08T15:26:19;9.68;;;6.88;;
64826;SDS011;51265;53.972;12.286;2023-01-08T15:28:57;10.35;;;6.45;;
64826;SDS011;51265;53.972;12.286;2023-01-08T15:31:29;11.13;;;6.80;;
64826;SDS011;51265;53.972;12.286;2023-01-08T15:33:58;13.57;;;6.38;;
64826;SDS011;51265;53.972;12.286;2023-01-08T15:36:25;10.50;;;6.80;;
64826;SDS011;51265;53.972;12.286;2023-01-08T15:38:52;8.82;;;5.95;;
64826;SDS011;51265;53.972;12.286;2023-01-08T15:41:19;10.32;;;6.47;;
64826;SDS011;51265;53.972;12.286;2023-01-08T15:44:06;10.25;;;5.80;;
64826;SDS011;51265;53.972;12.286;2023-01-08T15:46:34;9.82;;;6.25;;
64826;SDS011;51265;53.972;12.286;2023-01-08T15:49:00;9.70;;;6.25;;
64826;SDS011;51265;53.972;12.286;2023-01-08T15:51:27;11.68;;;6.68;;
64826;SDS011;51265;53.972;12.286;2023-01-08T15:53:56;11.80;;;7.28;;
64826;SDS011;51265;53.972;12.286;2023-01-08T15:56:22;8.85;;;6.78;;
64826;SDS011;51265;53.972;12.286;2023-01-08T15:58:48;13.18;;;7.65;;